createdAt,value
2023-02-24T00:02:15.333Z,99887.39
2023-02-24T00:04:45.636Z,99881.14
2023-02-24T00:07:17.018Z,99879.39
2023-02-24T00:09:46.801Z,99877.70
2023-02-24T00:12:16.016Z,99874.77
2023-02-24T00:14:48.479Z,99868.40
2023-02-24T00:17:17.223Z,99864.98
2023-02-24T00:19:46.787Z,99860.70
2023-02-24T00:22:14.930Z,99862.56
2023-02-24T00:24:44.606Z,99857.73
2023-02-24T00:27:12.765Z,99852.95
2023-02-24T00:29:45.943Z,99849.45
2023-02-24T00:32:15.075Z,99841.27
2023-02-24T00:34:44.690Z,99836.97
2023-02-24T00:37:15.453Z,99832.88
2023-02-24T00:39:48.144Z,99831.62
2023-02-24T00:42:16.530Z,99825.19
2023-02-24T00:44:45.911Z,99818.98
2023-02-24T00:47:17.614Z,99813.55
2023-02-24T00:49:46.069Z,99806.84
2023-02-24T00:52:19.354Z,99795.52
2023-02-24T00:54:49.391Z,99793.45
2023-02-24T00:57:21.638Z,99782.51
2023-02-24T00:59:52.287Z,99775.71
2023-02-24T01:02:21.681Z,99767.77
2023-02-24T01:04:51.631Z,99758.51
2023-02-24T01:07:19.968Z,99752.91
2023-02-24T01:09:50.016Z,99747.33
2023-02-24T01:12:38.885Z,99746.34
2023-02-24T01:15:10.202Z,99747.23
2023-02-24T01:17:44.136Z,99739.57
2023-02-24T01:20:19.269Z,99735.18
2023-02-24T01:22:53.181Z,99724.17
2023-02-24T01:25:22.594Z,99723.77
2023-02-24T01:27:50.960Z,99720.09
2023-02-24T01:30:20.771Z,99719.16
2023-02-24T01:32:49.613Z,99710.69
2023-02-24T01:35:23.518Z,99703.50
2023-02-24T01:37:53.389Z,99702.61
2023-02-24T01:40:21.975Z,99694.86
2023-02-24T01:42:52.224Z,99684.76
2023-02-24T01:45:22.890Z,99681.89
2023-02-24T01:47:53.016Z,99683.97
2023-02-24T01:50:22.205Z,99672.59
2023-02-24T01:52:51.996Z,99674.34
2023-02-24T01:55:23.840Z,99668.95
2023-02-24T01:57:52.196Z,99668.75
2023-02-24T02:00:32.146Z,99664.67
2023-02-24T02:03:08.336Z,99658.22
2023-02-24T02:05:39.112Z,99659.48
2023-02-24T02:08:09.268Z,99658.42
2023-02-24T02:10:40.030Z,99661.80
2023-02-24T02:13:08.146Z,99649.13
2023-02-24T02:15:44.199Z,99651.48
2023-02-24T02:18:56.363Z,99639.31
2023-02-24T02:21:55.346Z,99639.29
2023-02-24T02:24:44.130Z,99641.66
2023-02-24T02:27:19.990Z,99635.98
2023-02-24T02:30:07.979Z,99635.08
2023-02-24T02:32:39.837Z,99626.42
2023-02-24T02:35:13.064Z,99625.31
2023-02-24T02:37:43.948Z,99618.34
2023-02-24T02:40:23.408Z,99617.96
2023-02-24T02:42:54.727Z,99613.64
2023-02-24T02:45:47.889Z,99605.70
2023-02-24T02:48:20.390Z,99603.91
2023-02-24T02:50:55.325Z,99593.54
2023-02-24T02:53:34.911Z,99590.52
2023-02-24T02:56:16.647Z,99589.36
2023-02-24T02:58:49.692Z,99582.05
2023-02-24T03:01:21.106Z,99576.05
2023-02-24T03:03:51.972Z,99574.48
2023-02-24T03:06:53.158Z,99566.40
2023-02-24T03:09:24.507Z,99566.36
2023-02-24T03:11:59.945Z,99567.15
2023-02-24T03:14:33.332Z,99560.63
2023-02-24T03:17:04.590Z,99555.06
2023-02-24T03:19:38.017Z,99545.91
2023-02-24T03:22:13.837Z,99536.19
2023-02-24T03:24:42.873Z,99540.20
2023-02-24T03:27:20.918Z,99534.05
2023-02-24T03:29:54.938Z,99531.39
2023-02-24T03:32:33.613Z,99528.80
2023-02-24T03:35:15.207Z,99526.14
2023-02-24T03:37:44.788Z,99521.33
2023-02-24T03:40:16.788Z,99513.42
2023-02-24T03:42:52.351Z,99505.05
2023-02-24T03:45:23.306Z,99501.94
2023-02-24T03:47:56.179Z,99501.89
2023-02-24T03:50:27.783Z,99489.68
2023-02-24T03:53:20.932Z,99494.70
2023-02-24T03:55:59.624Z,99494.88
2023-02-24T03:58:37.422Z,99489.30
2023-02-24T04:01:14.881Z,99488.86
2023-02-24T04:03:52.081Z,99480.97
2023-02-24T04:06:59.826Z,99481.15
2023-02-24T04:09:45.087Z,99473.70
2023-02-24T04:12:31.080Z,99472.77
2023-02-24T04:15:16.073Z,99468.96
2023-02-24T04:17:47.620Z,99464.83
2023-02-24T04:20:20.434Z,99461.79
2023-02-24T04:22:59.729Z,99458.55
2023-02-24T04:25:28.601Z,99458.30
2023-02-24T04:27:59.079Z,99450.89
2023-02-24T04:30:30.174Z,99456.59
2023-02-24T04:32:58.934Z,99454.27
2023-02-24T04:35:28.466Z,99449.61
2023-02-24T04:37:57.223Z,99443.05
2023-02-24T04:40:26.711Z,99444.41
2023-02-24T04:42:54.839Z,99439.14
2023-02-24T04:45:29.139Z,99429.89
2023-02-24T04:48:02.293Z,99437.21
2023-02-24T04:50:35.837Z,99426.62
2023-02-24T04:53:07.365Z,99430.73
2023-02-24T04:55:40.311Z,99429.53
2023-02-24T04:58:12.958Z,99429.81
2023-02-24T05:00:42.024Z,99430.03
2023-02-24T05:03:11.698Z,99425.36
2023-02-24T05:05:39.703Z,99425.02
2023-02-24T05:08:10.253Z,99420.58
2023-02-24T05:10:46.743Z,99420.13
2023-02-24T05:13:17.611Z,99420.99
2023-02-24T05:15:46.750Z,99416.14
2023-02-24T05:18:24.113Z,99413.48
2023-02-24T05:21:13.063Z,99409.33
2023-02-24T05:23:45.919Z,99413.60
2023-02-24T05:26:37.957Z,99413.08
2023-02-24T05:29:06.797Z,99406.24
2023-02-24T05:31:35.174Z,99400.02
2023-02-24T05:34:05.619Z,99400.89
2023-02-24T05:36:34.449Z,99397.06
2023-02-24T05:39:08.070Z,99378.83
2023-02-24T05:41:38.290Z,99381.39
2023-02-24T05:44:13.663Z,99379.19
2023-02-24T05:46:46.788Z,99373.68
2023-02-24T05:49:20.798Z,99372.31
2023-02-24T05:51:55.729Z,99371.75
2023-02-24T05:54:35.899Z,99363.56
2023-02-24T05:57:09.124Z,99360.47
2023-02-24T05:59:38.195Z,99367.16
2023-02-24T06:02:09.756Z,99361.76
2023-02-24T06:04:40.744Z,99360.89
2023-02-24T06:07:19.527Z,99357.27
2023-02-24T06:09:56.697Z,99355.50
2023-02-24T06:12:31.891Z,99356.22
2023-02-24T06:15:07.860Z,99349.99
2023-02-24T06:17:36.770Z,99348.03
2023-02-24T06:20:15.098Z,99341.71
2023-02-24T06:22:43.327Z,99339.19
2023-02-24T06:25:15.953Z,99343.60
2023-02-24T06:27:45.131Z,99335.55
2023-02-24T06:30:15.277Z,99328.83
2023-02-24T06:32:45.025Z,99328.65
2023-02-24T06:35:13.218Z,99325.46
2023-02-24T06:37:42.075Z,99321.73
2023-02-24T06:40:20.325Z,99313.14
2023-02-24T06:42:49.665Z,99315.64
2023-02-24T06:45:18.814Z,99306.91
2023-02-24T06:47:49.077Z,99301.48
2023-02-24T06:50:21.960Z,99292.71
2023-02-24T06:52:53.340Z,99299.06
2023-02-24T06:55:27.697Z,99286.42
2023-02-24T06:57:58.982Z,99287.74
2023-02-24T07:00:37.347Z,99284.25
2023-02-24T07:03:16.321Z,99286.46
2023-02-24T07:05:54.603Z,99282.81
2023-02-24T07:08:27.447Z,99276.77
2023-02-24T07:11:00.109Z,99272.50
2023-02-24T07:13:31.120Z,99267.05
2023-02-24T07:16:06.941Z,99269.83
2023-02-24T07:18:37.126Z,99264.45
2023-02-24T07:21:05.590Z,99261.98
2023-02-24T07:23:34.344Z,99260.44
2023-02-24T07:26:04.428Z,99247.84
2023-02-24T07:28:34.623Z,99244.05
2023-02-24T07:31:08.642Z,99235.83
2023-02-24T07:33:37.340Z,99244.64
2023-02-24T07:36:10.361Z,99238.84
2023-02-24T07:38:39.608Z,99218.28
2023-02-24T07:41:08.270Z,99215.60
2023-02-24T07:43:37.356Z,99217.95
2023-02-24T07:46:13.668Z,99216.09
2023-02-24T07:48:42.612Z,99212.86
2023-02-24T07:51:12.085Z,99212.02
2023-02-24T07:53:43.590Z,99210.30
2023-02-24T07:56:15.802Z,99213.11
2023-02-24T07:58:44.711Z,99210.86
2023-02-24T08:01:23.458Z,99203.67
2023-02-24T08:03:56.176Z,99206.42
2023-02-24T08:06:38.288Z,99211.27
2023-02-24T08:09:17.591Z,99204.62
2023-02-24T08:11:52.609Z,99201.91
2023-02-24T08:14:23.926Z,99205.42
2023-02-24T08:16:59.622Z,99201.51
2023-02-24T08:19:41.847Z,99188.31
2023-02-24T08:22:20.336Z,99197.61
2023-02-24T08:25:06.452Z,99196.52
2023-02-24T08:27:40.432Z,99184.25
2023-02-24T08:30:25.213Z,99185.14
2023-02-24T08:32:57.101Z,99172.61
2023-02-24T08:35:35.931Z,99175.46
2023-02-24T08:38:14.774Z,99170.84
2023-02-24T08:40:55.960Z,99166.45
2023-02-24T08:43:29.826Z,99169.09
2023-02-24T08:46:12.791Z,99164.11
2023-02-24T08:48:45.193Z,99162.10
2023-02-24T08:51:24.129Z,99159.23
2023-02-24T08:53:54.015Z,99157.51
2023-02-24T08:56:24.811Z,99161.55
2023-02-24T08:59:05.780Z,99160.39
2023-02-24T09:01:37.390Z,99156.86
2023-02-24T09:04:11.636Z,99143.91
2023-02-24T09:06:53.835Z,99150.36
2023-02-24T09:09:25.949Z,99134.09
2023-02-24T09:11:57.256Z,99129.27
2023-02-24T09:14:30.552Z,99131.08
2023-02-24T09:17:30.015Z,99125.42
2023-02-24T09:20:17.963Z,99122.09
2023-02-24T09:22:58.087Z,99122.95
2023-02-24T09:25:40.840Z,99120.51
2023-02-24T09:28:18.970Z,99112.05
2023-02-24T09:30:58.754Z,99116.92
2023-02-24T09:33:28.700Z,99108.73
2023-02-24T09:36:10.734Z,99098.83
2023-02-24T09:39:02.982Z,99099.39
2023-02-24T09:42:17.950Z,99090.98
2023-02-24T09:44:49.193Z,99091.31
2023-02-24T09:47:54.838Z,99087.25
2023-02-24T09:51:03.305Z,99085.16
2023-02-24T09:53:41.328Z,99071.95
2023-02-24T09:56:16.245Z,99069.77
2023-02-24T09:58:53.423Z,99068.77
2023-02-24T10:01:33.838Z,99065.94
2023-02-24T10:04:27.558Z,99055.55
2023-02-24T10:06:59.067Z,99051.36
2023-02-24T10:09:34.693Z,99048.39
2023-02-24T10:12:17.478Z,99059.95
2023-02-24T10:15:15.630Z,99043.16
2023-02-24T10:17:50.811Z,99039.98
2023-02-24T10:20:39.956Z,99032.02
2023-02-24T10:23:45.341Z,99031.02
2023-02-24T10:26:31.966Z,99021.98
2023-02-24T10:29:29.800Z,99024.86
2023-02-24T10:32:24.738Z,99011.60
2023-02-24T10:34:53.422Z,99004.80
2023-02-24T10:37:28.724Z,99009.08
2023-02-24T10:39:59.615Z,99008.38
2023-02-24T10:42:32.419Z,98987.73
2023-02-24T10:45:18.614Z,98997.48
2023-02-24T10:47:56.813Z,98988.76
2023-02-24T10:50:32.862Z,98980.04
2023-02-24T10:53:26.049Z,98977.55
2023-02-24T10:56:17.578Z,98973.05
2023-02-24T10:58:49.755Z,98973.95
2023-02-24T11:01:44.832Z,98964.10
2023-02-24T11:04:33.272Z,98961.98
2023-02-24T11:07:33.604Z,98962.70
2023-02-24T11:10:26.232Z,98951.73
2023-02-24T11:13:14.093Z,98952.80
2023-02-24T11:16:01.895Z,98942.95
2023-02-24T11:18:31.375Z,98947.37
2023-02-24T11:21:04.845Z,98935.73
2023-02-24T11:24:06.359Z,98926.32
2023-02-24T11:26:37.943Z,98933.55
2023-02-24T11:29:18.616Z,98926.19
2023-02-24T11:32:25.557Z,98927.38
2023-02-24T11:35:06.119Z,98923.14
2023-02-24T11:37:43.607Z,98919.54
2023-02-24T11:40:25.738Z,98920.10
2023-02-24T11:43:10.498Z,98920.05
2023-02-24T11:45:47.583Z,98924.14
2023-02-24T11:48:22.887Z,98917.59
2023-02-24T11:51:06.060Z,98923.74
2023-02-24T11:53:44.281Z,98906.65
2023-02-24T11:56:34.126Z,98908.14
2023-02-24T11:59:21.313Z,98904.59
2023-02-24T12:01:57.191Z,98909.14
2023-02-24T12:04:30.273Z,98903.19
2023-02-24T12:07:20.340Z,98892.44
2023-02-24T12:10:14.101Z,98900.52
2023-02-24T12:12:49.570Z,98894.53
2023-02-24T12:15:27.748Z,98891.36
2023-02-24T12:18:04.499Z,98888.30
2023-02-24T12:20:41.727Z,98889.22
2023-02-24T12:23:15.965Z,98885.33
2023-02-24T12:26:05.020Z,98880.22
2023-02-24T12:28:58.791Z,98874.80
2023-02-24T12:32:00.655Z,98865.02
2023-02-24T12:34:53.528Z,98859.94
2023-02-24T12:37:24.638Z,98857.92
2023-02-24T12:40:02.062Z,98852.02
2023-02-24T12:43:07.964Z,98858.45
2023-02-24T12:45:41.059Z,98851.98
2023-02-24T12:48:23.577Z,98856.84
2023-02-24T12:51:07.920Z,98851.50
2023-02-24T12:53:57.665Z,98852.95
2023-02-24T12:56:30.621Z,98854.66
2023-02-24T12:59:05.620Z,98840.96
2023-02-24T13:01:40.198Z,98843.65
2023-02-24T13:04:27.066Z,98842.16
2023-02-24T13:07:10.168Z,98839.95
2023-02-24T13:10:07.788Z,98827.71
2023-02-24T13:12:53.174Z,98830.36
2023-02-24T13:15:25.541Z,98819.63
2023-02-24T13:17:57.680Z,98814.38
2023-02-24T13:20:37.556Z,98813.75
2023-02-24T13:23:19.706Z,98806.55
2023-02-24T13:25:52.105Z,98801.48
2023-02-24T13:28:33.517Z,98801.70
2023-02-24T13:31:07.543Z,98786.36
2023-02-24T13:33:36.431Z,98797.04
2023-02-24T13:36:13.731Z,98802.05
2023-02-24T13:38:43.892Z,98799.86
2023-02-24T13:41:23.692Z,98793.55
2023-02-24T13:44:22.860Z,98789.98
2023-02-24T13:46:59.957Z,98790.61
2023-02-24T13:50:10.106Z,98782.98
2023-02-24T13:52:59.007Z,98774.91
2023-02-24T13:56:01.462Z,98769.52
2023-02-24T13:58:50.458Z,98761.46
2023-02-24T14:01:19.198Z,98759.69
2023-02-24T14:04:14.964Z,98745.55
2023-02-24T14:06:50.326Z,98750.10
2023-02-24T14:09:22.771Z,98754.00
2023-02-24T14:11:53.062Z,98743.54
2023-02-24T14:14:21.161Z,98741.45
2023-02-24T14:16:50.224Z,98744.23
2023-02-24T14:19:19.137Z,98731.61
2023-02-24T14:21:51.314Z,98733.37
2023-02-24T14:24:20.774Z,98730.68
2023-02-24T14:26:53.479Z,98736.04
2023-02-24T14:29:32.158Z,98734.00
2023-02-24T14:32:00.534Z,98729.19
2023-02-24T14:34:30.198Z,98728.29
2023-02-24T14:37:02.892Z,98719.74
2023-02-24T14:39:32.232Z,98723.85
2023-02-24T14:42:08.209Z,98722.15
2023-02-24T14:44:45.127Z,98717.60
2023-02-24T14:47:14.636Z,98709.48
2023-02-24T14:49:43.024Z,98708.09
2023-02-24T14:52:21.940Z,98705.42
2023-02-24T14:54:57.906Z,98702.91
2023-02-24T14:57:36.158Z,98699.28
2023-02-24T15:00:17.598Z,98694.90
2023-02-24T15:02:47.895Z,98685.71
2023-02-24T15:05:17.017Z,98681.39
2023-02-24T15:07:46.268Z,98679.61
2023-02-24T15:13:24.557Z,98685.98
2023-02-24T15:15:57.198Z,98682.09
2023-02-24T15:18:27.859Z,98679.89
2023-02-24T15:21:01.509Z,98675.63
2023-02-24T15:23:36.953Z,98679.31
2023-02-24T15:26:08.774Z,98678.35
2023-02-24T15:28:37.374Z,98677.88
2023-02-24T15:31:10.845Z,98679.63
2023-02-24T15:33:52.949Z,98666.17
2023-02-24T15:36:23.739Z,98667.13
2023-02-24T15:38:58.523Z,98666.11
2023-02-24T15:41:26.931Z,98670.55
2023-02-24T15:43:56.479Z,98668.90
2023-02-24T15:46:30.576Z,98672.70
2023-02-24T15:49:03.230Z,98656.02
2023-02-24T15:51:36.400Z,98654.32
2023-02-24T15:54:11.017Z,98650.52
2023-02-24T15:56:39.769Z,98650.23
2023-02-24T15:59:07.836Z,98649.13
2023-02-24T16:01:36.230Z,98651.27
2023-02-24T16:04:05.754Z,98656.77
2023-02-24T16:06:36.210Z,98652.11
2023-02-24T16:09:05.470Z,98648.00
2023-02-24T16:11:35.598Z,98645.22
2023-02-24T16:14:03.638Z,98640.63
2023-02-24T16:16:33.583Z,98639.23
2023-02-24T16:19:04.495Z,98638.33
2023-02-24T16:21:34.329Z,98638.22
2023-02-24T16:24:02.652Z,98638.11
2023-02-24T16:26:30.992Z,98632.87
2023-02-24T16:28:59.351Z,98627.27
2023-02-24T16:31:31.373Z,98626.30
2023-02-24T16:33:59.986Z,98623.79
2023-02-24T16:36:29.088Z,98621.06
2023-02-24T16:38:57.572Z,98618.55
2023-02-24T16:41:25.914Z,98615.55
2023-02-24T16:43:54.028Z,98611.86
2023-02-24T16:46:23.159Z,98611.80
2023-02-24T16:48:53.498Z,98607.27
2023-02-24T16:51:22.250Z,98604.16
2023-02-24T16:53:50.360Z,98601.02
2023-02-24T16:56:19.693Z,98599.46
2023-02-24T16:58:48.285Z,98596.68
2023-02-24T17:01:20.073Z,98595.08
2023-02-24T17:03:50.428Z,98592.24
2023-02-24T17:06:21.959Z,98593.15
2023-02-24T17:08:50.825Z,98585.30
2023-02-24T17:11:20.275Z,98582.51
2023-02-24T17:13:51.654Z,98578.13
2023-02-24T17:16:21.632Z,98577.49
2023-02-24T17:18:50.150Z,98572.25
2023-02-24T17:21:18.295Z,98566.64
2023-02-24T17:23:46.512Z,98566.48
2023-02-24T17:26:14.992Z,98566.70
2023-02-24T17:28:43.263Z,98564.98
2023-02-24T17:31:12.607Z,98562.84
2023-02-24T17:33:41.674Z,98557.76
2023-02-24T17:36:10.021Z,98553.80
2023-02-24T17:38:38.418Z,98555.87
2023-02-24T17:41:06.568Z,98553.79
2023-02-24T17:43:37.694Z,98551.81
2023-02-24T17:46:07.420Z,98548.07
2023-02-24T17:48:39.851Z,98543.38
2023-02-24T17:51:30.832Z,98545.20
2023-02-24T17:53:59.207Z,98545.27
2023-02-24T17:56:27.828Z,98544.74
2023-02-24T17:58:59.143Z,98542.54
2023-02-24T18:01:27.644Z,98543.20
2023-02-24T18:03:57.660Z,98539.26
2023-02-24T18:06:25.732Z,98537.49
2023-02-24T18:08:54.783Z,98536.91
2023-02-24T18:11:23.005Z,98540.70
2023-02-24T18:14:00.408Z,98533.23
2023-02-24T18:16:30.617Z,98530.84
2023-02-24T18:18:58.955Z,98531.05
2023-02-24T18:21:27.084Z,98530.99
2023-02-24T18:23:55.895Z,98528.38
2023-02-24T18:26:25.568Z,98525.51
2023-02-24T18:28:55.646Z,98517.48
2023-02-24T18:31:27.209Z,98519.20
2023-02-24T18:33:56.306Z,98518.73
2023-02-24T18:36:24.922Z,98513.27
2023-02-24T18:38:56.744Z,98512.11
2023-02-24T18:41:25.102Z,98511.09
2023-02-24T18:43:54.997Z,98509.43
2023-02-24T18:46:24.537Z,98505.42
2023-02-24T18:48:52.916Z,98503.82
2023-02-24T18:51:22.514Z,98500.98
2023-02-24T18:53:52.739Z,98500.98
2023-02-24T18:56:23.573Z,98495.21
2023-02-24T18:58:55.288Z,98489.55
2023-02-24T19:01:25.030Z,98493.36
2023-02-24T19:03:55.422Z,98487.64
2023-02-24T19:06:24.790Z,98489.30
2023-02-24T19:09:11.273Z,98487.96
2023-02-24T19:11:39.794Z,98482.35
2023-02-24T19:14:10.356Z,98474.07
2023-02-24T19:16:40.135Z,98475.67
2023-02-24T19:19:13.298Z,98470.60
2023-02-24T19:21:41.989Z,98469.36
2023-02-24T19:24:12.641Z,98465.73
2023-02-24T19:26:42.889Z,98457.50
2023-02-24T19:29:13.732Z,98460.17
2023-02-24T19:31:41.899Z,98462.10
2023-02-24T19:34:14.263Z,98454.88
2023-02-24T19:36:42.700Z,98455.25
2023-02-24T19:39:15.839Z,98450.59
2023-02-24T19:41:44.226Z,98450.06
2023-02-24T19:44:17.668Z,98444.55
2023-02-24T19:46:45.895Z,98449.20
2023-02-24T19:49:14.247Z,98439.68
2023-02-24T19:51:48.088Z,98440.59
2023-02-24T19:54:16.980Z,98431.48
2023-02-24T19:56:45.015Z,98432.17
2023-02-24T19:59:13.709Z,98425.42
2023-02-24T20:01:42.140Z,98421.50
2023-02-24T20:04:11.135Z,98417.70
2023-02-24T20:06:40.968Z,98412.27
2023-02-24T20:09:12.457Z,98410.59
2023-02-24T20:11:42.949Z,98406.88
2023-02-24T20:14:17.197Z,98405.27
2023-02-24T20:16:48.271Z,98395.14
2023-02-24T20:19:18.381Z,98394.23
2023-02-24T20:21:47.829Z,98398.23
2023-02-24T20:24:16.645Z,98392.64
2023-02-24T20:26:47.447Z,98390.34
2023-02-24T20:29:16.406Z,98389.25
2023-02-24T20:31:46.890Z,98389.58
2023-02-24T20:34:16.933Z,98385.94
2023-02-24T20:36:46.941Z,98383.27
2023-02-24T20:39:15.263Z,98388.94
2023-02-24T20:41:43.340Z,98378.83
2023-02-24T20:44:11.575Z,98375.46
2023-02-24T20:46:40.057Z,98378.64
2023-02-24T20:49:09.389Z,98372.48
2023-02-24T20:51:37.901Z,98368.80
2023-02-24T20:54:06.564Z,98360.83
2023-02-24T20:56:38.194Z,98365.69
2023-02-24T20:59:12.665Z,98360.65
2023-02-24T21:01:41.177Z,98360.61
2023-02-24T21:04:09.367Z,98361.14
2023-02-24T21:06:39.605Z,98361.85
2023-02-24T21:09:12.623Z,98356.18
2023-02-24T21:11:44.744Z,98351.42
2023-02-24T21:14:15.733Z,98346.08
2023-02-24T21:16:46.357Z,98345.64
2023-02-24T21:19:17.930Z,98340.61
2023-02-24T21:21:46.574Z,98331.98
2023-02-24T21:24:15.787Z,98328.94
2023-02-24T21:26:43.891Z,98334.82
2023-02-24T21:29:12.200Z,98323.48
2023-02-24T21:31:40.584Z,98328.45
2023-02-24T21:34:12.266Z,98324.42
2023-02-24T21:36:43.543Z,98323.48
2023-02-24T21:39:14.915Z,98316.43
2023-02-24T21:41:43.149Z,98321.03
2023-02-24T21:44:12.236Z,98313.02
2023-02-24T21:46:45.621Z,98312.75
2023-02-24T21:49:15.309Z,98315.90
2023-02-24T21:51:48.696Z,98307.66
2023-02-24T21:54:17.974Z,98307.65
2023-02-24T21:56:46.286Z,98304.40
2023-02-24T21:59:14.708Z,98299.09
2023-02-24T22:01:43.807Z,98298.44
2023-02-24T22:04:13.922Z,98298.27
2023-02-24T22:06:42.910Z,98296.20
2023-02-24T22:09:14.621Z,98288.95
2023-02-24T22:11:42.768Z,98293.73
2023-02-24T22:14:13.883Z,98283.27
2023-02-24T22:16:42.785Z,98282.52
2023-02-24T22:19:11.452Z,98282.48
2023-02-24T22:21:42.652Z,98276.19
2023-02-24T22:24:13.348Z,98278.81
2023-02-24T22:26:42.142Z,98279.35
2023-02-24T22:29:10.850Z,98277.64
2023-02-24T22:31:39.695Z,98268.70
2023-02-24T22:34:09.016Z,98262.33
2023-02-24T22:36:37.560Z,98258.48
2023-02-24T22:39:06.710Z,98268.50
2023-02-24T22:41:35.505Z,98270.38
2023-02-24T22:44:04.668Z,98273.60
2023-02-24T22:46:37.373Z,98265.43
2023-02-24T22:49:06.600Z,98263.14
2023-02-24T22:51:35.250Z,98261.06
2023-02-24T22:54:04.306Z,98258.45
2023-02-24T22:56:33.740Z,98256.25
2023-02-24T22:59:03.124Z,98255.10
2023-02-24T23:01:32.850Z,98252.58
2023-02-24T23:04:05.239Z,98253.72
2023-02-24T23:06:35.009Z,98250.41
2023-02-24T23:09:03.831Z,98245.86
2023-02-24T23:11:34.398Z,98245.21
2023-02-24T23:14:03.804Z,98239.22
2023-02-24T23:16:34.184Z,98236.63
2023-02-24T23:19:06.659Z,98232.11
2023-02-24T23:21:40.027Z,98223.14
2023-02-24T23:24:11.132Z,98222.13
2023-02-24T23:26:45.864Z,98214.80
2023-02-24T23:29:15.493Z,98207.28
2023-02-24T23:31:44.326Z,98207.83
2023-02-24T23:34:12.590Z,98209.04
2023-02-24T23:36:43.755Z,98201.77
2023-02-24T23:39:23.094Z,98200.71
2023-02-24T23:41:57.155Z,98200.61
2023-02-24T23:44:25.861Z,98201.24
2023-02-24T23:46:54.874Z,98198.91
2023-02-24T23:49:24.125Z,98197.30
2023-02-24T23:51:52.329Z,98191.95
2023-02-24T23:54:20.610Z,98193.64
2023-02-24T23:56:48.975Z,98193.48
2023-02-24T23:59:26.767Z,98188.41
